sensor_id;sensor_type;location;lat;lon;timestamp;temperature;humidity
65582;DHT22;52231;40.090;18.348;2023-08-24T00:01:41;24.40;83.90
65582;DHT22;52231;40.090;18.348;2023-08-24T00:04:09;24.40;83.80
65582;DHT22;52231;40.090;18.348;2023-08-24T00:06:38;24.40;83.80
65582;DHT22;52231;40.090;18.348;2023-08-24T00:09:06;24.30;83.80
65582;DHT22;52231;40.090;18.348;2023-08-24T00:11:34;24.30;83.70
65582;DHT22;52231;40.090;18.348;2023-08-24T00:14:02;24.30;83.70
65582;DHT22;52231;40.090;18.348;2023-08-24T00:16:31;24.30;83.70
65582;DHT22;52231;40.090;18.348;2023-08-24T00:18:59;24.30;83.80
65582;DHT22;52231;40.090;18.348;2023-08-24T00:21:27;24.20;83.90
65582;DHT22;52231;40.090;18.348;2023-08-24T00:23:56;24.20;83.90
65582;DHT22;52231;40.090;18.348;2023-08-24T00:26:24;24.20;84.00
65582;DHT22;52231;40.090;18.348;2023-08-24T00:28:52;24.20;84.10
65582;DHT22;52231;40.090;18.348;2023-08-24T00:31:21;24.10;84.20
65582;DHT22;52231;40.090;18.348;2023-08-24T00:33:49;24.10;84.30
65582;DHT22;52231;40.090;18.348;2023-08-24T00:36:18;24.10;84.40
65582;DHT22;52231;40.090;18.348;2023-08-24T00:38:46;24.10;84.50
65582;DHT22;52231;40.090;18.348;2023-08-24T00:41:18;24.10;84.80
65582;DHT22;52231;40.090;18.348;2023-08-24T00:43:47;24.10;85.00
65582;DHT22;52231;40.090;18.348;2023-08-24T00:46:14;24.10;85.10
65582;DHT22;52231;40.090;18.348;2023-08-24T00:48:43;24.10;85.50
65582;DHT22;52231;40.090;18.348;2023-08-24T00:51:11;24.10;85.60
65582;DHT22;52231;40.090;18.348;2023-08-24T00:53:39;24.10;85.70
65582;DHT22;52231;40.090;18.348;2023-08-24T00:56:08;24.10;85.80
65582;DHT22;52231;40.090;18.348;2023-08-24T00:58:38;24.10;86.00
65582;DHT22;52231;40.090;18.348;2023-08-24T01:01:06;24.10;86.10
65582;DHT22;52231;40.090;18.348;2023-08-24T01:03:34;24.00;86.40
65582;DHT22;52231;40.090;18.348;2023-08-24T01:06:02;24.10;86.40
65582;DHT22;52231;40.090;18.348;2023-08-24T01:08:30;24.10;86.50
65582;DHT22;52231;40.090;18.348;2023-08-24T01:13:46;24.10;86.60
65582;DHT22;52231;40.090;18.348;2023-08-24T01:16:25;24.00;86.60
65582;DHT22;52231;40.090;18.348;2023-08-24T01:18:59;24.00;86.70
65582;DHT22;52231;40.090;18.348;2023-08-24T01:21:29;24.00;86.80
65582;DHT22;52231;40.090;18.348;2023-08-24T01:24:10;24.00;86.90
65582;DHT22;52231;40.090;18.348;2023-08-24T01:26:41;24.00;86.90
65582;DHT22;52231;40.090;18.348;2023-08-24T01:29:10;24.00;87.00
65582;DHT22;52231;40.090;18.348;2023-08-24T01:31:38;24.00;87.00
65582;DHT22;52231;40.090;18.348;2023-08-24T01:34:06;24.00;86.90
65582;DHT22;52231;40.090;18.348;2023-08-24T01:36:34;24.00;86.80
65582;DHT22;52231;40.090;18.348;2023-08-24T01:39:07;24.00;86.80
65582;DHT22;52231;40.090;18.348;2023-08-24T01:41:39;24.00;86.70
65582;DHT22;52231;40.090;18.348;2023-08-24T01:44:13;24.00;86.60
65582;DHT22;52231;40.090;18.348;2023-08-24T01:46:43;24.00;86.40
65582;DHT22;52231;40.090;18.348;2023-08-24T01:49:13;24.00;86.30
65582;DHT22;52231;40.090;18.348;2023-08-24T01:51:43;24.00;86.20
65582;DHT22;52231;40.090;18.348;2023-08-24T01:54:12;24.00;86.10
65582;DHT22;52231;40.090;18.348;2023-08-24T01:56:41;23.90;85.90
65582;DHT22;52231;40.090;18.348;2023-08-24T01:59:08;23.90;85.80
65582;DHT22;52231;40.090;18.348;2023-08-24T02:01:37;23.90;85.70
65582;DHT22;52231;40.090;18.348;2023-08-24T02:04:05;23.90;85.60
65582;DHT22;52231;40.090;18.348;2023-08-24T02:06:33;23.90;85.40
65582;DHT22;52231;40.090;18.348;2023-08-24T02:09:02;23.90;85.20
65582;DHT22;52231;40.090;18.348;2023-08-24T02:11:30;24.00;85.00
65582;DHT22;52231;40.090;18.348;2023-08-24T02:13:58;23.90;84.90
65582;DHT22;52231;40.090;18.348;2023-08-24T02:16:26;24.00;84.80
65582;DHT22;52231;40.090;18.348;2023-08-24T02:18:56;24.00;84.60
65582;DHT22;52231;40.090;18.348;2023-08-24T02:21:24;24.00;84.40
65582;DHT22;52231;40.090;18.348;2023-08-24T02:23:52;24.00;84.20
65582;DHT22;52231;40.090;18.348;2023-08-24T02:26:20;23.90;84.10
65582;DHT22;52231;40.090;18.348;2023-08-24T02:28:49;24.00;84.00
65582;DHT22;52231;40.090;18.348;2023-08-24T02:31:17;23.90;84.00
65582;DHT22;52231;40.090;18.348;2023-08-24T02:33:44;23.90;84.00
65582;DHT22;52231;40.090;18.348;2023-08-24T02:36:12;23.80;84.00
65582;DHT22;52231;40.090;18.348;2023-08-24T02:38:41;23.80;84.10
65582;DHT22;52231;40.090;18.348;2023-08-24T02:41:09;23.80;84.10
65582;DHT22;52231;40.090;18.348;2023-08-24T02:43:38;23.80;84.20
65582;DHT22;52231;40.090;18.348;2023-08-24T02:46:07;23.80;84.20
65582;DHT22;52231;40.090;18.348;2023-08-24T02:48:35;23.70;84.30
65582;DHT22;52231;40.090;18.348;2023-08-24T02:51:04;23.70;84.40
65582;DHT22;52231;40.090;18.348;2023-08-24T02:53:33;23.60;84.50
65582;DHT22;52231;40.090;18.348;2023-08-24T02:56:01;23.60;84.50
65582;DHT22;52231;40.090;18.348;2023-08-24T02:58:32;23.60;84.50
65582;DHT22;52231;40.090;18.348;2023-08-24T03:01:05;23.60;84.50
65582;DHT22;52231;40.090;18.348;2023-08-24T03:03:35;23.50;84.50
65582;DHT22;52231;40.090;18.348;2023-08-24T03:06:06;23.50;84.50
65582;DHT22;52231;40.090;18.348;2023-08-24T03:08:34;23.50;84.50
65582;DHT22;52231;40.090;18.348;2023-08-24T03:11:03;23.50;84.50
65582;DHT22;52231;40.090;18.348;2023-08-24T03:13:35;23.50;84.50
65582;DHT22;52231;40.090;18.348;2023-08-24T03:16:05;23.50;84.40
65582;DHT22;52231;40.090;18.348;2023-08-24T03:18:34;23.50;84.30
65582;DHT22;52231;40.090;18.348;2023-08-24T03:21:04;23.40;84.30
65582;DHT22;52231;40.090;18.348;2023-08-24T03:23:34;23.50;84.20
65582;DHT22;52231;40.090;18.348;2023-08-24T03:26:02;23.40;84.10
65582;DHT22;52231;40.090;18.348;2023-08-24T03:28:31;23.40;84.10
65582;DHT22;52231;40.090;18.348;2023-08-24T03:31:00;23.40;84.10
65582;DHT22;52231;40.090;18.348;2023-08-24T03:33:29;23.30;84.00
65582;DHT22;52231;40.090;18.348;2023-08-24T03:35:59;23.30;84.00
65582;DHT22;52231;40.090;18.348;2023-08-24T03:38:28;23.40;83.90
65582;DHT22;52231;40.090;18.348;2023-08-24T03:41:03;23.30;83.80
65582;DHT22;52231;40.090;18.348;2023-08-24T03:43:33;23.30;83.80
65582;DHT22;52231;40.090;18.348;2023-08-24T03:46:01;23.30;83.80
65582;DHT22;52231;40.090;18.348;2023-08-24T03:48:32;23.30;83.80
65582;DHT22;52231;40.090;18.348;2023-08-24T03:51:01;23.30;83.80
65582;DHT22;52231;40.090;18.348;2023-08-24T03:53:29;23.30;83.80
65582;DHT22;52231;40.090;18.348;2023-08-24T03:55:57;23.30;83.70
65582;DHT22;52231;40.090;18.348;2023-08-24T03:58:25;23.20;83.70
65582;DHT22;52231;40.090;18.348;2023-08-24T04:00:53;23.20;83.80
65582;DHT22;52231;40.090;18.348;2023-08-24T04:03:22;23.20;83.90
65582;DHT22;52231;40.090;18.348;2023-08-24T04:05:50;23.10;83.90
65582;DHT22;52231;40.090;18.348;2023-08-24T04:08:18;23.20;83.90
65582;DHT22;52231;40.090;18.348;2023-08-24T04:10:46;23.20;83.80
65582;DHT22;52231;40.090;18.348;2023-08-24T04:13:14;23.10;83.80
65582;DHT22;52231;40.090;18.348;2023-08-24T04:15:43;23.10;83.80
65582;DHT22;52231;40.090;18.348;2023-08-24T04:18:11;23.10;83.90
65582;DHT22;52231;40.090;18.348;2023-08-24T04:20:39;23.10;84.00
65582;DHT22;52231;40.090;18.348;2023-08-24T04:23:07;23.10;84.00
65582;DHT22;52231;40.090;18.348;2023-08-24T04:25:39;23.10;84.00
65582;DHT22;52231;40.090;18.348;2023-08-24T04:28:08;23.10;84.10
65582;DHT22;52231;40.090;18.348;2023-08-24T04:30:36;23.10;84.10
65582;DHT22;52231;40.090;18.348;2023-08-24T04:33:04;23.20;84.10
65582;DHT22;52231;40.090;18.348;2023-08-24T04:35:35;23.20;84.00
65582;DHT22;52231;40.090;18.348;2023-08-24T04:38:05;23.30;83.80
65582;DHT22;52231;40.090;18.348;2023-08-24T04:40:45;23.40;83.60
65582;DHT22;52231;40.090;18.348;2023-08-24T04:43:13;23.40;83.50
65582;DHT22;52231;40.090;18.348;2023-08-24T04:45:41;23.60;83.20
65582;DHT22;52231;40.090;18.348;2023-08-24T04:48:08;23.70;83.00
65582;DHT22;52231;40.090;18.348;2023-08-24T04:50:37;23.80;82.70
65582;DHT22;52231;40.090;18.348;2023-08-24T04:53:05;23.90;82.40
65582;DHT22;52231;40.090;18.348;2023-08-24T04:55:33;24.00;82.10
65582;DHT22;52231;40.090;18.348;2023-08-24T04:58:01;24.20;81.70
65582;DHT22;52231;40.090;18.348;2023-08-24T05:00:30;24.30;81.30
65582;DHT22;52231;40.090;18.348;2023-08-24T05:03:02;24.50;80.90
65582;DHT22;52231;40.090;18.348;2023-08-24T05:05:34;24.70;80.40
65582;DHT22;52231;40.090;18.348;2023-08-24T05:08:04;24.90;79.90
65582;DHT22;52231;40.090;18.348;2023-08-24T05:10:40;25.10;79.50
65582;DHT22;52231;40.090;18.348;2023-08-24T05:13:11;25.30;79.10
65582;DHT22;52231;40.090;18.348;2023-08-24T05:15:39;25.50;78.70
65582;DHT22;52231;40.090;18.348;2023-08-24T05:18:07;25.70;78.00
65582;DHT22;52231;40.090;18.348;2023-08-24T05:20:35;25.90;77.80
65582;DHT22;52231;40.090;18.348;2023-08-24T05:23:04;26.10;77.20
65582;DHT22;52231;40.090;18.348;2023-08-24T05:25:32;26.40;76.80
65582;DHT22;52231;40.090;18.348;2023-08-24T05:28:02;26.60;76.00
65582;DHT22;52231;40.090;18.348;2023-08-24T05:30:30;26.80;75.40
65582;DHT22;52231;40.090;18.348;2023-08-24T05:32:59;27.00;74.60
65582;DHT22;52231;40.090;18.348;2023-08-24T05:35:27;27.30;73.90
65582;DHT22;52231;40.090;18.348;2023-08-24T05:37:58;27.40;73.30
65582;DHT22;52231;40.090;18.348;2023-08-24T05:40:26;27.60;72.60
65582;DHT22;52231;40.090;18.348;2023-08-24T05:42:54;27.80;71.60
65582;DHT22;52231;40.090;18.348;2023-08-24T05:45:22;27.90;71.20
65582;DHT22;52231;40.090;18.348;2023-08-24T05:47:51;28.10;70.70
65582;DHT22;52231;40.090;18.348;2023-08-24T05:50:19;28.30;70.00
65582;DHT22;52231;40.090;18.348;2023-08-24T05:52:47;28.40;69.50
65582;DHT22;52231;40.090;18.348;2023-08-24T05:55:15;28.50;68.90
65582;DHT22;52231;40.090;18.348;2023-08-24T05:57:45;28.70;68.40
65582;DHT22;52231;40.090;18.348;2023-08-24T06:00:14;28.80;68.00
65582;DHT22;52231;40.090;18.348;2023-08-24T06:02:44;28.80;67.70
65582;DHT22;52231;40.090;18.348;2023-08-24T06:05:13;29.00;67.20
65582;DHT22;52231;40.090;18.348;2023-08-24T06:07:41;29.20;66.70
65582;DHT22;52231;40.090;18.348;2023-08-24T06:10:09;29.30;66.20
65582;DHT22;52231;40.090;18.348;2023-08-24T06:12:38;29.30;65.80
65582;DHT22;52231;40.090;18.348;2023-08-24T06:15:06;29.40;65.30
65582;DHT22;52231;40.090;18.348;2023-08-24T06:17:37;29.50;65.10
65582;DHT22;52231;40.090;18.348;2023-08-24T06:20:08;29.60;64.90
65582;DHT22;52231;40.090;18.348;2023-08-24T06:22:39;29.60;64.70
65582;DHT22;52231;40.090;18.348;2023-08-24T06:25:08;29.80;64.20
65582;DHT22;52231;40.090;18.348;2023-08-24T06:27:36;30.10;63.50
65582;DHT22;52231;40.090;18.348;2023-08-24T06:30:05;30.20;62.50
65582;DHT22;52231;40.090;18.348;2023-08-24T06:32:33;30.30;62.50
65582;DHT22;52231;40.090;18.348;2023-08-24T06:35:01;30.40;62.00
65582;DHT22;52231;40.090;18.348;2023-08-24T06:37:30;30.40;61.70
65582;DHT22;52231;40.090;18.348;2023-08-24T06:39:58;30.60;61.40
65582;DHT22;52231;40.090;18.348;2023-08-24T06:42:26;30.70;61.00
65582;DHT22;52231;40.090;18.348;2023-08-24T06:44:54;30.80;60.60
65582;DHT22;52231;40.090;18.348;2023-08-24T06:47:23;30.90;60.40
65582;DHT22;52231;40.090;18.348;2023-08-24T06:49:51;31.00;60.30
65582;DHT22;52231;40.090;18.348;2023-08-24T06:52:19;31.20;59.80
65582;DHT22;52231;40.090;18.348;2023-08-24T06:54:47;31.30;59.80
65582;DHT22;52231;40.090;18.348;2023-08-24T06:57:21;31.50;59.20
65582;DHT22;52231;40.090;18.348;2023-08-24T06:59:49;31.70;58.40
65582;DHT22;52231;40.090;18.348;2023-08-24T07:02:17;31.90;58.10
65582;DHT22;52231;40.090;18.348;2023-08-24T07:04:46;32.20;57.70
65582;DHT22;52231;40.090;18.348;2023-08-24T07:07:14;32.40;56.90
65582;DHT22;52231;40.090;18.348;2023-08-24T07:09:42;32.70;56.00
65582;DHT22;52231;40.090;18.348;2023-08-24T07:12:10;32.80;56.30
65582;DHT22;52231;40.090;18.348;2023-08-24T07:14:38;32.90;55.70
65582;DHT22;52231;40.090;18.348;2023-08-24T07:17:06;32.90;55.50
65582;DHT22;52231;40.090;18.348;2023-08-24T07:19:35;32.90;55.30
65582;DHT22;52231;40.090;18.348;2023-08-24T07:22:03;32.90;55.40
65582;DHT22;52231;40.090;18.348;2023-08-24T07:24:31;33.00;55.00
65582;DHT22;52231;40.090;18.348;2023-08-24T07:27:05;33.20;54.60
65582;DHT22;52231;40.090;18.348;2023-08-24T07:29:34;33.30;53.90
65582;DHT22;52231;40.090;18.348;2023-08-24T07:32:02;33.30;53.50
65582;DHT22;52231;40.090;18.348;2023-08-24T07:34:30;33.60;53.50
65582;DHT22;52231;40.090;18.348;2023-08-24T07:36:59;33.70;52.60
65582;DHT22;52231;40.090;18.348;2023-08-24T07:39:27;33.80;52.40
65582;DHT22;52231;40.090;18.348;2023-08-24T07:41:55;33.90;51.90
65582;DHT22;52231;40.090;18.348;2023-08-24T07:44:23;33.90;52.20
65582;DHT22;52231;40.090;18.348;2023-08-24T07:46:51;33.90;52.10
65582;DHT22;52231;40.090;18.348;2023-08-24T07:49:19;34.00;51.60
65582;DHT22;52231;40.090;18.348;2023-08-24T07:51:48;34.10;51.30
65582;DHT22;52231;40.090;18.348;2023-08-24T07:54:16;34.30;51.20
65582;DHT22;52231;40.090;18.348;2023-08-24T07:56:44;34.30;51.10
65582;DHT22;52231;40.090;18.348;2023-08-24T07:59:12;34.50;50.80
65582;DHT22;52231;40.090;18.348;2023-08-24T08:01:40;34.40;51.40
65582;DHT22;52231;40.090;18.348;2023-08-24T08:04:08;34.50;51.30
65582;DHT22;52231;40.090;18.348;2023-08-24T08:06:36;34.50;51.20
65582;DHT22;52231;40.090;18.348;2023-08-24T08:09:04;34.50;51.00
65582;DHT22;52231;40.090;18.348;2023-08-24T08:11:33;34.60;50.50
65582;DHT22;52231;40.090;18.348;2023-08-24T08:14:02;34.60;50.80
65582;DHT22;52231;40.090;18.348;2023-08-24T08:16:30;34.80;49.80
65582;DHT22;52231;40.090;18.348;2023-08-24T08:18:59;34.80;48.40
65582;DHT22;52231;40.090;18.348;2023-08-24T08:21:27;34.80;49.00
65582;DHT22;52231;40.090;18.348;2023-08-24T08:23:55;34.90;48.20
65582;DHT22;52231;40.090;18.348;2023-08-24T08:26:23;34.90;48.10
65582;DHT22;52231;40.090;18.348;2023-08-24T08:28:51;35.10;47.50
65582;DHT22;52231;40.090;18.348;2023-08-24T08:31:20;35.10;47.60
65582;DHT22;52231;40.090;18.348;2023-08-24T08:33:48;35.20;48.00
65582;DHT22;52231;40.090;18.348;2023-08-24T08:36:17;35.40;47.70
65582;DHT22;52231;40.090;18.348;2023-08-24T08:38:45;35.40;47.50
65582;DHT22;52231;40.090;18.348;2023-08-24T08:41:15;35.50;47.20
65582;DHT22;52231;40.090;18.348;2023-08-24T08:43:45;35.50;47.70
65582;DHT22;52231;40.090;18.348;2023-08-24T08:46:13;35.60;48.30
65582;DHT22;52231;40.090;18.348;2023-08-24T08:48:45;35.80;47.60
65582;DHT22;52231;40.090;18.348;2023-08-24T08:51:14;35.70;48.10
65582;DHT22;52231;40.090;18.348;2023-08-24T08:53:46;35.80;47.90
65582;DHT22;52231;40.090;18.348;2023-08-24T08:56:14;35.90;47.60
65582;DHT22;52231;40.090;18.348;2023-08-24T08:58:44;36.10;47.10
65582;DHT22;52231;40.090;18.348;2023-08-24T09:01:14;36.20;46.70
65582;DHT22;52231;40.090;18.348;2023-08-24T09:03:43;36.00;47.00
65582;DHT22;52231;40.090;18.348;2023-08-24T09:06:12;36.10;47.10
65582;DHT22;52231;40.090;18.348;2023-08-24T09:08:40;36.30;46.30
65582;DHT22;52231;40.090;18.348;2023-08-24T09:11:08;36.40;46.00
65582;DHT22;52231;40.090;18.348;2023-08-24T09:13:37;36.60;45.50
65582;DHT22;52231;40.090;18.348;2023-08-24T09:16:06;36.80;45.60
65582;DHT22;52231;40.090;18.348;2023-08-24T09:18:39;37.00;45.00
65582;DHT22;52231;40.090;18.348;2023-08-24T09:21:12;36.90;44.50
65582;DHT22;52231;40.090;18.348;2023-08-24T09:23:54;36.90;44.60
65582;DHT22;52231;40.090;18.348;2023-08-24T09:26:29;36.90;45.00
65582;DHT22;52231;40.090;18.348;2023-08-24T09:28:58;36.90;44.30
65582;DHT22;52231;40.090;18.348;2023-08-24T09:31:36;37.10;44.50
65582;DHT22;52231;40.090;18.348;2023-08-24T09:34:05;37.30;44.10
65582;DHT22;52231;40.090;18.348;2023-08-24T09:36:34;37.40;42.80
65582;DHT22;52231;40.090;18.348;2023-08-24T09:39:04;37.40;43.40
65582;DHT22;52231;40.090;18.348;2023-08-24T09:41:48;37.40;43.50
65582;DHT22;52231;40.090;18.348;2023-08-24T09:44:19;37.60;43.10
65582;DHT22;52231;40.090;18.348;2023-08-24T09:46:49;37.70;43.50
65582;DHT22;52231;40.090;18.348;2023-08-24T09:49:19;37.70;42.70
65582;DHT22;52231;40.090;18.348;2023-08-24T09:51:48;37.80;42.50
65582;DHT22;52231;40.090;18.348;2023-08-24T09:54:18;37.90;41.80
65582;DHT22;52231;40.090;18.348;2023-08-24T09:56:50;38.00;41.20
65582;DHT22;52231;40.090;18.348;2023-08-24T09:59:19;38.20;42.00
65582;DHT22;52231;40.090;18.348;2023-08-24T10:01:52;38.20;41.30
65582;DHT22;52231;40.090;18.348;2023-08-24T10:04:24;38.30;42.40
65582;DHT22;52231;40.090;18.348;2023-08-24T10:09:43;38.10;42.40
65582;DHT22;52231;40.090;18.348;2023-08-24T10:12:13;38.10;42.00
65582;DHT22;52231;40.090;18.348;2023-08-24T10:17:17;38.20;40.90
65582;DHT22;52231;40.090;18.348;2023-08-24T10:19:46;38.20;41.30
65582;DHT22;52231;40.090;18.348;2023-08-24T10:22:14;38.10;41.70
65582;DHT22;52231;40.090;18.348;2023-08-24T10:24:44;38.10;41.70
65582;DHT22;52231;40.090;18.348;2023-08-24T10:27:13;38.20;42.30
65582;DHT22;52231;40.090;18.348;2023-08-24T10:29:42;38.40;41.90
65582;DHT22;52231;40.090;18.348;2023-08-24T10:32:10;38.80;40.90
65582;DHT22;52231;40.090;18.348;2023-08-24T10:34:39;38.80;40.00
65582;DHT22;52231;40.090;18.348;2023-08-24T10:37:11;38.80;41.20
65582;DHT22;52231;40.090;18.348;2023-08-24T10:39:46;39.10;39.80
65582;DHT22;52231;40.090;18.348;2023-08-24T10:42:15;39.00;39.50
65582;DHT22;52231;40.090;18.348;2023-08-24T10:44:46;38.90;40.80
65582;DHT22;52231;40.090;18.348;2023-08-24T10:49:58;38.80;40.40
65582;DHT22;52231;40.090;18.348;2023-08-24T10:52:37;38.90;40.20
65582;DHT22;52231;40.090;18.348;2023-08-24T10:55:26;39.00;39.00
65582;DHT22;52231;40.090;18.348;2023-08-24T10:57:59;38.70;39.20
65582;DHT22;52231;40.090;18.348;2023-08-24T11:00:29;38.70;39.60
65582;DHT22;52231;40.090;18.348;2023-08-24T11:02:58;38.80;39.80
65582;DHT22;52231;40.090;18.348;2023-08-24T11:05:31;38.80;40.10
65582;DHT22;52231;40.090;18.348;2023-08-24T11:08:18;39.20;39.30
65582;DHT22;52231;40.090;18.348;2023-08-24T11:10:46;39.30;39.10
65582;DHT22;52231;40.090;18.348;2023-08-24T11:13:18;39.60;38.80
65582;DHT22;52231;40.090;18.348;2023-08-24T11:15:55;39.40;38.80
65582;DHT22;52231;40.090;18.348;2023-08-24T11:18:28;39.30;38.90
65582;DHT22;52231;40.090;18.348;2023-08-24T11:21:07;39.10;38.70
65582;DHT22;52231;40.090;18.348;2023-08-24T11:23:35;39.10;39.00
65582;DHT22;52231;40.090;18.348;2023-08-24T11:26:03;39.20;38.30
65582;DHT22;52231;40.090;18.348;2023-08-24T11:28:31;39.30;38.10
65582;DHT22;52231;40.090;18.348;2023-08-24T11:30:59;39.30;38.10
65582;DHT22;52231;40.090;18.348;2023-08-24T11:33:33;39.30;38.20
65582;DHT22;52231;40.090;18.348;2023-08-24T11:36:05;39.30;38.80
65582;DHT22;52231;40.090;18.348;2023-08-24T11:38:39;39.20;38.10
65582;DHT22;52231;40.090;18.348;2023-08-24T11:43:40;39.60;36.70
65582;DHT22;52231;40.090;18.348;2023-08-24T11:46:08;39.70;36.30
65582;DHT22;52231;40.090;18.348;2023-08-24T11:48:38;39.40;36.50
65582;DHT22;52231;40.090;18.348;2023-08-24T11:51:11;39.40;36.90
65582;DHT22;52231;40.090;18.348;2023-08-24T11:53:42;39.40;36.40
65582;DHT22;52231;40.090;18.348;2023-08-24T11:56:14;39.40;35.90
65582;DHT22;52231;40.090;18.348;2023-08-24T11:58:48;39.60;35.50
65582;DHT22;52231;40.090;18.348;2023-08-24T12:01:18;39.60;35.60
65582;DHT22;52231;40.090;18.348;2023-08-24T12:03:46;39.60;36.60
65582;DHT22;52231;40.090;18.348;2023-08-24T12:06:17;39.60;36.70
65582;DHT22;52231;40.090;18.348;2023-08-24T12:08:46;39.70;36.60
65582;DHT22;52231;40.090;18.348;2023-08-24T12:11:20;39.70;36.40
65582;DHT22;52231;40.090;18.348;2023-08-24T12:13:50;39.40;37.00
65582;DHT22;52231;40.090;18.348;2023-08-24T12:16:19;39.20;37.00
65582;DHT22;52231;40.090;18.348;2023-08-24T12:18:55;38.90;36.90
65582;DHT22;52231;40.090;18.348;2023-08-24T12:21:24;38.90;36.60
65582;DHT22;52231;40.090;18.348;2023-08-24T12:26:27;38.90;36.40
65582;DHT22;52231;40.090;18.348;2023-08-24T12:29:01;38.90;36.20
65582;DHT22;52231;40.090;18.348;2023-08-24T12:31:31;39.00;35.80
65582;DHT22;52231;40.090;18.348;2023-08-24T12:34:06;39.00;36.00
65582;DHT22;52231;40.090;18.348;2023-08-24T12:36:38;39.30;35.40
65582;DHT22;52231;40.090;18.348;2023-08-24T12:39:07;39.40;35.10
65582;DHT22;52231;40.090;18.348;2023-08-24T12:41:38;39.40;34.60
65582;DHT22;52231;40.090;18.348;2023-08-24T12:44:06;39.40;35.30
65582;DHT22;52231;40.090;18.348;2023-08-24T12:46:37;39.40;35.40
65582;DHT22;52231;40.090;18.348;2023-08-24T12:49:06;39.40;35.90
65582;DHT22;52231;40.090;18.348;2023-08-24T12:51:34;39.40;35.30
65582;DHT22;52231;40.090;18.348;2023-08-24T12:54:02;39.40;35.10
65582;DHT22;52231;40.090;18.348;2023-08-24T12:56:30;39.10;34.50
65582;DHT22;52231;40.090;18.348;2023-08-24T12:58:58;39.10;35.60
65582;DHT22;52231;40.090;18.348;2023-08-24T13:01:27;38.90;35.90
65582;DHT22;52231;40.090;18.348;2023-08-24T13:03:55;38.90;36.00
65582;DHT22;52231;40.090;18.348;2023-08-24T13:06:23;39.00;34.90
65582;DHT22;52231;40.090;18.348;2023-08-24T13:08:54;38.90;35.60
65582;DHT22;52231;40.090;18.348;2023-08-24T13:11:23;38.90;35.40
65582;DHT22;52231;40.090;18.348;2023-08-24T13:13:51;38.80;35.20
65582;DHT22;52231;40.090;18.348;2023-08-24T13:16:19;38.50;34.40
65582;DHT22;52231;40.090;18.348;2023-08-24T13:18:47;38.20;35.10
65582;DHT22;52231;40.090;18.348;2023-08-24T13:21:16;38.30;35.50
65582;DHT22;52231;40.090;18.348;2023-08-24T13:23:46;38.70;35.00
65582;DHT22;52231;40.090;18.348;2023-08-24T13:26:21;38.80;34.60
65582;DHT22;52231;40.090;18.348;2023-08-24T13:28:51;38.90;34.80
65582;DHT22;52231;40.090;18.348;2023-08-24T13:31:20;38.90;34.60
65582;DHT22;52231;40.090;18.348;2023-08-24T13:33:48;38.90;34.10
65582;DHT22;52231;40.090;18.348;2023-08-24T13:36:16;38.80;34.70
65582;DHT22;52231;40.090;18.348;2023-08-24T13:38:45;38.80;35.60
65582;DHT22;52231;40.090;18.348;2023-08-24T13:41:15;38.70;35.30
65582;DHT22;52231;40.090;18.348;2023-08-24T13:43:44;38.50;35.40
65582;DHT22;52231;40.090;18.348;2023-08-24T13:46:12;38.50;35.80
65582;DHT22;52231;40.090;18.348;2023-08-24T13:48:40;38.20;35.70
65582;DHT22;52231;40.090;18.348;2023-08-24T13:51:09;38.20;36.80
65582;DHT22;52231;40.090;18.348;2023-08-24T13:53:37;38.30;36.30
65582;DHT22;52231;40.090;18.348;2023-08-24T13:56:06;38.20;37.20
65582;DHT22;52231;40.090;18.348;2023-08-24T13:58:34;37.90;38.20
65582;DHT22;52231;40.090;18.348;2023-08-24T14:01:02;37.90;38.10
65582;DHT22;52231;40.090;18.348;2023-08-24T14:03:33;38.00;37.10
65582;DHT22;52231;40.090;18.348;2023-08-24T14:06:02;38.20;36.70
65582;DHT22;52231;40.090;18.348;2023-08-24T14:08:30;38.30;36.50
65582;DHT22;52231;40.090;18.348;2023-08-24T14:10:59;38.30;37.10
65582;DHT22;52231;40.090;18.348;2023-08-24T14:13:27;38.30;37.20
65582;DHT22;52231;40.090;18.348;2023-08-24T14:15:55;38.10;37.30
65582;DHT22;52231;40.090;18.348;2023-08-24T14:18:24;37.80;37.50
65582;DHT22;52231;40.090;18.348;2023-08-24T14:20:52;37.40;38.20
65582;DHT22;52231;40.090;18.348;2023-08-24T14:23:20;37.20;38.20
65582;DHT22;52231;40.090;18.348;2023-08-24T14:25:48;37.10;38.40
65582;DHT22;52231;40.090;18.348;2023-08-24T14:28:19;37.00;39.00
65582;DHT22;52231;40.090;18.348;2023-08-24T14:30:52;36.80;39.20
65582;DHT22;52231;40.090;18.348;2023-08-24T14:33:24;36.60;40.30
65582;DHT22;52231;40.090;18.348;2023-08-24T14:35:53;36.40;41.20
65582;DHT22;52231;40.090;18.348;2023-08-24T14:38:21;36.20;42.40
65582;DHT22;52231;40.090;18.348;2023-08-24T14:40:50;36.20;42.70
65582;DHT22;52231;40.090;18.348;2023-08-24T14:43:18;36.20;42.10
65582;DHT22;52231;40.090;18.348;2023-08-24T14:45:46;36.10;41.10
65582;DHT22;52231;40.090;18.348;2023-08-24T14:48:14;36.00;40.80
65582;DHT22;52231;40.090;18.348;2023-08-24T14:50:42;36.00;42.20
65582;DHT22;52231;40.090;18.348;2023-08-24T14:53:11;36.00;39.00
65582;DHT22;52231;40.090;18.348;2023-08-24T14:55:39;35.90;39.10
65582;DHT22;52231;40.090;18.348;2023-08-24T14:58:08;35.80;39.60
65582;DHT22;52231;40.090;18.348;2023-08-24T15:00:36;35.80;40.40
65582;DHT22;52231;40.090;18.348;2023-08-24T15:03:04;35.70;39.00
65582;DHT22;52231;40.090;18.348;2023-08-24T15:05:43;35.60;39.50
65582;DHT22;52231;40.090;18.348;2023-08-24T15:08:12;35.60;39.60
65582;DHT22;52231;40.090;18.348;2023-08-24T15:10:41;35.60;41.10
65582;DHT22;52231;40.090;18.348;2023-08-24T15:13:09;35.40;39.50
65582;DHT22;52231;40.090;18.348;2023-08-24T15:15:37;35.30;38.60
65582;DHT22;52231;40.090;18.348;2023-08-24T15:18:06;35.30;38.90
65582;DHT22;52231;40.090;18.348;2023-08-24T15:20:34;35.20;38.90
65582;DHT22;52231;40.090;18.348;2023-08-24T15:23:02;35.10;39.00
65582;DHT22;52231;40.090;18.348;2023-08-24T15:25:30;34.90;39.20
65582;DHT22;52231;40.090;18.348;2023-08-24T15:27:59;34.90;39.60
65582;DHT22;52231;40.090;18.348;2023-08-24T15:30:27;35.00;40.10
65582;DHT22;52231;40.090;18.348;2023-08-24T15:32:55;35.10;40.10
65582;DHT22;52231;40.090;18.348;2023-08-24T15:35:24;35.10;40.30
65582;DHT22;52231;40.090;18.348;2023-08-24T15:37:53;35.10;40.00
65582;DHT22;52231;40.090;18.348;2023-08-24T15:40:21;35.00;40.80
65582;DHT22;52231;40.090;18.348;2023-08-24T15:42:51;35.00;40.90
65582;DHT22;52231;40.090;18.348;2023-08-24T15:45:19;35.00;41.40